Time;durP1;ratioP1;P1;durP2;ratioP2;P2;SDS_P1;SDS_P2;PMS_P1;PMS_P2;Temp;Humidity;BMP_temperature;BMP_pressure;BME280_temperature;BME280_humidity;BME280_pressure;Samples;Min_cycle;Max_cycle;Signal;HPM_P1;HPM_P2
2022/05/26 00:01:16;;;;;;;;;2.50;1.50;;;;;-142.59;100.00;56100.38;5018652;28;49812;-62
2022/05/26 00:03:43;;;;;;;;;2.25;2.25;;;;;-142.59;100.00;56100.38;5015767;28;50669;-63
2022/05/26 00:06:11;;;;;;;;;1.50;1.50;;;;;-142.59;100.00;56100.38;5019517;28;49697;-62
2022/05/26 00:08:38;;;;;;;;;1.75;0.50;;;;;-142.59;100.00;56100.38;5020665;28;49841;-63
2022/05/26 00:11:06;;;;;;;;;1.25;1.25;;;;;-142.59;100.00;56100.38;5019536;28;49730;-63
2022/05/26 00:13:32;;;;;;;;;1.00;1.00;;;;;-142.59;100.00;56100.38;5015970;28;50622;-63
2022/05/26 00:15:57;;;;;;;;;6.50;1.50;;;;;-142.59;100.00;56100.38;5019060;28;49616;-63
2022/05/26 00:18:22;;;;;;;;;1.00;1.00;;;;;-142.59;100.00;56100.38;5021518;28;50372;-62
2022/05/26 00:20:48;;;;;;;;;0.00;0.00;;;;;-142.59;100.00;56100.38;5020693;28;49595;-62
2022/05/26 00:23:14;;;;;;;;;0.00;0.00;;;;;-142.59;100.00;56100.38;5018093;28;50394;-62
2022/05/26 00:25:39;;;;;;;;;1.25;1.00;;;;;-142.59;100.00;56100.38;5018732;28;50198;-63
2022/05/26 00:28:05;;;;;;;;;1.00;1.00;;;;;-142.59;100.00;56100.38;5019641;28;49802;-62
2022/05/26 00:30:31;;;;;;;;;4.00;2.50;;;;;-142.59;100.00;56100.38;5017469;28;49753;-63
2022/05/26 00:32:56;;;;;;;;;1.00;1.00;;;;;-142.59;100.00;56100.38;5019520;28;51456;-62
2022/05/26 00:35:22;;;;;;;;;1.00;1.00;;;;;-142.59;100.00;56100.38;5016778;28;49682;-62
2022/05/26 00:37:47;;;;;;;;;1.00;1.00;;;;;-142.59;100.00;56100.38;5023427;28;49801;-62
2022/05/26 00:40:14;;;;;;;;;1.00;0.50;;;;;-142.59;100.00;56100.38;5033864;28;49512;-63
2022/05/26 00:42:40;;;;;;;;;2.25;1.25;;;;;-142.59;100.00;56100.38;5017548;28;49764;-62
2022/05/26 00:45:07;;;;;;;;;1.25;1.00;;;;;-142.59;100.00;56100.38;5014416;28;49697;-62
2022/05/26 00:47:39;;;;;;;;;1.00;1.00;;;;;-142.59;100.00;56100.38;5021221;28;49682;-62
2022/05/26 00:50:26;;;;;;;;;0.75;0.75;;;;;-142.59;100.00;56100.38;5020083;28;49734;-62
2022/05/26 00:53:12;;;;;;;;;1.00;1.00;;;;;-142.59;100.00;56100.38;5028718;28;50482;-62
2022/05/26 00:55:44;;;;;;;;;2.00;0.25;;;;;-142.59;100.00;56100.38;5023580;28;49749;-62
2022/05/26 00:58:14;;;;;;;;;0.50;0.00;;;;;-142.59;100.00;56100.38;5015290;28;49904;-62
2022/05/26 01:00:40;;;;;;;;;1.00;1.00;;;;;-142.59;100.00;56100.38;5019316;28;49947;-62
2022/05/26 01:03:13;;;;;;;;;0.00;0.00;;;;;-142.59;100.00;56100.38;5017304;28;49500;-63
2022/05/26 01:05:50;;;;;;;;;1.00;1.00;;;;;-142.59;100.00;56100.38;5019803;28;49944;-69
2022/05/26 01:08:25;;;;;;;;;1.00;1.00;;;;;-142.59;100.00;56100.38;5026968;28;49696;-64
2022/05/26 01:10:52;;;;;;;;;0.25;0.25;;;;;-142.59;100.00;56100.38;5016396;28;49528;-75
2022/05/26 01:13:18;;;;;;;;;0.00;0.00;;;;;-142.59;100.00;56100.38;5019670;28;49826;-76
2022/05/26 01:15:55;;;;;;;;;1.00;1.00;;;;;-142.59;100.00;56100.38;5021376;28;49663;-62
2022/05/26 01:18:33;;;;;;;;;0.50;0.50;;;;;-142.59;100.00;56100.38;5019864;28;49775;-63
2022/05/26 01:21:13;;;;;;;;;0.75;0.75;;;;;-142.59;100.00;56100.38;5029944;28;49694;-71
2022/05/26 01:23:57;;;;;;;;;0.00;0.00;;;;;-142.59;100.00;56100.38;5027170;28;50057;-63
2022/05/26 01:26:42;;;;;;;;;1.00;1.00;;;;;-142.59;100.00;56100.38;5019225;28;49793;-62
2022/05/26 01:29:13;;;;;;;;;1.00;1.00;;;;;-142.59;100.00;56100.38;5020166;28;49964;-74
2022/05/26 01:31:57;;;;;;;;;0.50;0.00;;;;;-142.59;100.00;56100.38;5021135;28;49861;-67
2022/05/26 01:34:31;;;;;;;;;2.50;2.50;;;;;-142.59;100.00;56100.38;5015871;28;49706;-62
2022/05/26 01:37:35;;;;;;;;;1.00;0.25;;;;;-142.59;100.00;56100.38;5019679;28;49922;-63
2022/05/26 01:40:24;;;;;;;;;2.00;1.00;;;;;-142.59;100.00;56100.38;5030406;28;49968;-78
2022/05/26 01:43:04;;;;;;;;;1.00;1.00;;;;;-142.59;100.00;56100.38;5020004;28;49867;-64
2022/05/26 01:46:00;;;;;;;;;2.00;0.75;;;;;-142.59;100.00;56100.38;5013340;28;49670;-66
2022/05/26 01:48:33;;;;;;;;;0.00;0.00;;;;;-142.59;100.00;56100.38;5013709;28;49902;-77
2022/05/26 01:51:02;;;;;;;;;1.50;1.50;;;;;-142.59;100.00;56100.38;5026136;28;49768;-69
2022/05/26 01:53:42;;;;;;;;;1.25;1.25;;;;;-142.59;100.00;56100.38;5026503;28;49967;-72
2022/05/26 01:56:21;;;;;;;;;1.00;1.00;;;;;-142.59;100.00;56100.38;5022422;28;50654;-76
2022/05/26 01:58:57;;;;;;;;;1.00;1.00;;;;;-142.59;100.00;56100.38;5016189;28;50262;-66
2022/05/26 02:01:28;;;;;;;;;1.00;1.00;;;;;-142.59;100.00;56100.38;5021075;28;49815;-66
2022/05/26 02:03:58;;;;;;;;;1.75;0.75;;;;;-142.59;100.00;56100.38;5018571;28;49835;-67
2022/05/26 02:06:29;;;;;;;;;1.50;1.00;;;;;-142.59;100.00;56100.38;5021499;28;51175;-64
2022/05/26 02:09:05;;;;;;;;;0.50;0.50;;;;;-142.59;100.00;56100.38;5035788;28;49778;-72
2022/05/26 02:11:33;;;;;;;;;0.00;0.00;;;;;-142.59;100.00;56100.38;5026847;28;49984;-77
2022/05/26 02:14:10;;;;;;;;;2.75;1.00;;;;;-142.59;100.00;56100.38;5029549;28;49618;-76
2022/05/26 02:16:48;;;;;;;;;1.00;1.00;;;;;-142.59;100.00;56100.38;5022732;28;50620;-63
2022/05/26 02:19:25;;;;;;;;;1.75;1.75;;;;;-142.59;100.00;56100.38;5018193;28;49747;-68
2022/05/26 02:22:15;;;;;;;;;1.50;0.75;;;;;-142.59;100.00;56100.38;5029181;28;49670;-73
2022/05/26 02:24:53;;;;;;;;;0.00;0.00;;;;;-142.59;100.00;56100.38;5029404;28;49640;-76
2022/05/26 02:27:19;;;;;;;;;1.00;1.00;;;;;-142.59;100.00;56100.38;5028756;28;49752;-75
2022/05/26 02:29:51;;;;;;;;;0.25;0.25;;;;;-142.59;100.00;56100.38;5020053;28;49885;-63
2022/05/26 02:32:21;;;;;;;;;0.00;0.00;;;;;-142.59;100.00;56100.38;5017188;28;49812;-72
2022/05/26 02:34:49;;;;;;;;;1.75;1.00;;;;;-142.59;100.00;56100.38;5019350;28;50027;-69
2022/05/26 02:37:16;;;;;;;;;1.00;1.00;;;;;-142.59;100.00;56100.38;5019481;28;49762;-62
2022/05/26 02:39:41;;;;;;;;;1.50;1.00;;;;;-142.59;100.00;56100.38;5019467;28;49745;-63
2022/05/26 02:42:08;;;;;;;;;0.75;0.75;;;;;-142.59;100.00;56100.38;5030189;28;49780;-62
2022/05/26 02:44:33;;;;;;;;;0.50;0.50;;;;;-142.59;100.00;56100.38;5028064;28;49763;-62
2022/05/26 02:47:14;;;;;;;;;0.00;0.00;;;;;-142.59;100.00;56100.38;5018690;28;50146;-63
2022/05/26 02:50:01;;;;;;;;;0.50;0.00;;;;;-142.59;100.00;56100.38;5016144;28;49853;-66
2022/05/26 02:52:51;;;;;;;;;0.50;0.00;;;;;-142.59;100.00;56100.38;5022584;28;49753;-61
2022/05/26 02:55:27;;;;;;;;;0.75;0.75;;;;;-142.59;100.00;56100.38;5030490;28;49694;-62
2022/05/26 02:58:14;;;;;;;;;0.00;0.00;;;;;-142.59;100.00;56100.38;5019436;28;49765;-62
2022/05/26 03:00:42;;;;;;;;;0.25;0.25;;;;;-142.59;100.00;56100.38;5033648;28;49702;-62
2022/05/26 03:03:25;;;;;;;;;0.00;0.00;;;;;-142.59;100.00;56100.38;5021449;28;49850;-62
2022/05/26 03:06:07;;;;;;;;;2.75;0.00;;;;;-142.59;100.00;56100.38;5025052;28;49846;-62
2022/05/26 03:08:37;;;;;;;;;0.00;0.00;;;;;-142.59;100.00;56100.38;5015783;28;49743;-62
2022/05/26 03:11:17;;;;;;;;;0.25;0.00;;;;;-142.59;100.00;56100.38;5019036;28;49713;-61
2022/05/26 03:13:42;;;;;;;;;1.00;1.00;;;;;-142.59;100.00;56100.38;5024136;28;49570;-64
2022/05/26 03:16:08;;;;;;;;;1.00;1.00;;;;;-142.59;100.00;56100.38;5028544;28;49725;-62
2022/05/26 03:18:35;;;;;;;;;0.75;0.75;;;;;-142.59;100.00;56100.38;5030200;28;50612;-61
2022/05/26 03:21:02;;;;;;;;;1.00;1.00;;;;;-142.59;100.00;56100.38;5017410;28;49756;-62
2022/05/26 03:23:28;;;;;;;;;0.00;0.00;;;;;-142.59;100.00;56100.38;5020352;28;49837;-61
2022/05/26 03:25:58;;;;;;;;;0.00;0.00;;;;;-142.59;100.00;56100.38;5026079;28;50281;-63
2022/05/26 03:28:25;;;;;;;;;0.00;0.00;;;;;-142.59;100.00;56100.38;5020449;28;50429;-61
2022/05/26 03:30:51;;;;;;;;;0.00;0.00;;;;;-142.59;100.00;56100.38;5019077;28;49840;-61
2022/05/26 03:33:16;;;;;;;;;0.00;0.00;;;;;-142.59;100.00;56100.38;5018491;28;49883;-61
2022/05/26 03:41:10;;;;;;;;;0.00;0.00;;;;;-142.59;100.00;56100.38;5027648;28;49779;-62
2022/05/26 03:43:41;;;;;;;;;0.00;0.00;;;;;-142.59;100.00;56100.38;5019459;28;49760;-62
2022/05/26 03:46:07;;;;;;;;;0.00;0.00;;;;;-142.59;100.00;56100.38;5016690;28;49577;-62
2022/05/26 03:48:32;;;;;;;;;0.00;0.00;;;;;-142.59;100.00;56100.38;5019581;28;50295;-62
2022/05/26 03:50:58;;;;;;;;;0.00;0.00;;;;;-142.59;100.00;56100.38;4999948;28;49815;-64
2022/05/26 03:53:24;;;;;;;;;0.00;0.00;;;;;-142.59;100.00;56100.38;5015673;28;49670;-62
2022/05/26 03:55:50;;;;;;;;;1.00;1.00;;;;;-142.59;100.00;56100.38;5015417;28;50755;-62
2022/05/26 03:58:17;;;;;;;;;0.00;0.00;;;;;-142.59;100.00;56100.38;5018523;28;51152;-62
2022/05/26 04:00:43;;;;;;;;;0.25;0.00;;;;;-142.59;100.00;56100.38;5015521;28;49691;-62
2022/05/26 04:03:08;;;;;;;;;1.00;0.00;;;;;-142.59;100.00;56100.38;5027303;28;49774;-62
2022/05/26 04:05:34;;;;;;;;;0.00;0.00;;;;;-142.59;100.00;56100.38;5016930;28;49697;-62
2022/05/26 04:07:59;;;;;;;;;1.50;0.00;;;;;-142.59;100.00;56100.38;5020367;28;50478;-62
2022/05/26 04:10:24;;;;;;;;;1.00;0.00;;;;;-142.59;100.00;56100.38;5016151;28;49647;-64
2022/05/26 04:12:50;;;;;;;;;0.00;0.00;;;;;-142.59;100.00;56100.38;5022571;28;50156;-62
2022/05/26 04:15:17;;;;;;;;;1.75;0.75;;;;;-142.59;100.00;56100.38;5015898;28;49856;-65
2022/05/26 04:17:43;;;;;;;;;1.75;1.75;;;;;-142.59;100.00;56100.38;5016469;28;50378;-70
2022/05/26 04:20:12;;;;;;;;;1.00;1.00;;;;;-142.59;100.00;56100.38;5015164;28;49754;-64
2022/05/26 04:22:38;;;;;;;;;1.75;1.50;;;;;-142.59;100.00;56100.38;5007307;28;49791;-60
2022/05/26 04:25:04;;;;;;;;;1.25;1.25;;;;;-142.59;100.00;56100.38;5017211;28;49818;-61
2022/05/26 04:27:31;;;;;;;;;1.25;1.25;;;;;-142.59;100.00;56100.38;5019002;28;50828;-63
2022/05/26 04:29:57;;;;;;;;;1.00;1.00;;;;;-142.59;100.00;56100.38;5014683;28;49750;-65
2022/05/26 04:32:23;;;;;;;;;1.00;1.00;;;;;-142.59;100.00;56100.38;5014259;28;49520;-61
2022/05/26 04:34:50;;;;;;;;;3.50;1.25;;;;;-142.59;100.00;56100.38;5014438;28;49635;-61
2022/05/26 04:37:16;;;;;;;;;1.50;0.25;;;;;-142.59;100.00;56100.38;5014114;28;50644;-61
2022/05/26 04:39:41;;;;;;;;;2.25;0.75;;;;;-142.59;100.00;56100.38;5019957;28;49816;-61
2022/05/26 04:42:08;;;;;;;;;1.75;1.75;;;;;-142.59;100.00;56100.38;5019402;28;49940;-61
2022/05/26 04:44:39;;;;;;;;;1.00;1.00;;;;;-142.59;100.00;56100.38;5023232;28;49851;-64
2022/05/26 04:47:05;;;;;;;;;1.75;1.75;;;;;-142.59;100.00;56100.38;5018384;28;49787;-64
2022/05/26 04:49:31;;;;;;;;;1.00;1.00;;;;;-142.59;100.00;56100.38;5015094;28;49729;-61
2022/05/26 04:51:57;;;;;;;;;1.25;0.75;;;;;-142.59;100.00;56100.38;5022351;28;49675;-63
2022/05/26 04:54:22;;;;;;;;;0.75;0.00;;;;;-142.59;100.00;56100.38;5018684;28;49948;-60
2022/05/26 04:56:48;;;;;;;;;2.50;2.00;;;;;-142.59;100.00;56100.38;5021127;28;50348;-61
2022/05/26 04:59:14;;;;;;;;;1.00;1.00;;;;;-142.59;100.00;56100.38;5013721;28;49823;-60
2022/05/26 05:01:40;;;;;;;;;2.00;2.00;;;;;-142.59;100.00;56100.38;5019682;28;50079;-62
2022/05/26 05:04:06;;;;;;;;;1.75;1.75;;;;;-142.59;100.00;56100.38;5017008;28;50019;-60
2022/05/26 05:06:31;;;;;;;;;2.25;0.50;;;;;-142.59;100.00;56100.38;5018020;28;49844;-64
2022/05/26 05:08:57;;;;;;;;;1.25;1.25;;;;;-142.59;100.00;56100.38;5024281;28;49726;-77
2022/05/26 05:11:22;;;;;;;;;2.00;0.00;;;;;-142.59;100.00;56100.38;5020635;28;49650;-63
2022/05/26 05:13:47;;;;;;;;;1.25;1.25;;;;;-142.59;100.00;56100.38;5011949;28;49718;-62
2022/05/26 05:16:22;;;;;;;;;1.00;1.00;;;;;-142.59;100.00;56100.38;5013024;28;50439;-65
2022/05/26 05:18:50;;;;;;;;;2.25;2.25;;;;;-142.59;100.00;56100.38;5013110;28;49829;-64
2022/05/26 05:21:22;;;;;;;;;1.25;1.25;;;;;-142.59;100.00;56100.38;5012736;28;49754;-64
2022/05/26 05:23:55;;;;;;;;;1.50;1.50;;;;;-142.59;100.00;56100.38;5013253;28;49811;-62
2022/05/26 05:26:22;;;;;;;;;1.00;1.00;;;;;-142.59;100.00;56100.38;5013158;28;50849;-63
2022/05/26 05:29:00;;;;;;;;;0.75;0.75;;;;;-142.59;100.00;56100.38;5013842;28;49525;-62
2022/05/26 05:31:32;;;;;;;;;1.00;1.00;;;;;-142.59;100.00;56100.38;5027057;28;49749;-63
2022/05/26 05:34:04;;;;;;;;;1.00;1.00;;;;;-142.59;100.00;56100.38;5032566;28;49840;-63
2022/05/26 05:36:33;;;;;;;;;2.50;2.50;;;;;-142.59;100.00;56100.38;5031960;28;50487;-64
2022/05/26 05:39:00;;;;;;;;;2.50;2.00;;;;;-142.59;100.00;56100.38;5032698;28;49847;-63
2022/05/26 05:41:27;;;;;;;;;2.50;2.00;;;;;-142.59;100.00;56100.38;5032618;28;49722;-63
2022/05/26 05:43:54;;;;;;;;;1.00;0.00;;;;;-142.59;100.00;56100.38;5032804;28;49809;-63
2022/05/26 05:46:20;;;;;;;;;1.00;1.00;;;;;-142.59;100.00;56100.38;5014754;28;52946;-65
2022/05/26 05:48:46;;;;;;;;;0.00;0.00;;;;;-142.59;100.00;56100.38;5032334;28;50008;-65
2022/05/26 05:51:12;;;;;;;;;1.25;1.25;;;;;-142.59;100.00;56100.38;5032706;28;49894;-65
2022/05/26 05:53:37;;;;;;;;;0.00;0.00;;;;;-142.59;100.00;56100.38;5032352;28;49844;-63
2022/05/26 05:56:04;;;;;;;;;1.75;0.00;;;;;-142.59;100.00;56100.38;5031500;28;50356;-64
2022/05/26 05:58:29;;;;;;;;;0.25;0.25;;;;;-142.59;100.00;56100.38;5032753;28;50176;-63
2022/05/26 06:00:54;;;;;;;;;1.00;1.00;;;;;-142.59;100.00;56100.38;5015387;28;49796;-62
2022/05/26 06:03:21;;;;;;;;;1.00;0.00;;;;;-142.59;100.00;56100.38;5032675;28;49531;-62
2022/05/26 06:05:46;;;;;;;;;0.75;0.75;;;;;-142.59;100.00;56100.38;5032330;28;49578;-63
2022/05/26 06:08:11;;;;;;;;;0.25;0.00;;;;;-142.59;100.00;56100.38;5032195;28;49804;-63
2022/05/26 06:10:37;;;;;;;;;0.00;0.00;;;;;-142.59;100.00;56100.38;5032327;28;49835;-70
2022/05/26 06:13:03;;;;;;;;;1.50;1.00;;;;;-142.59;100.00;56100.38;5032566;28;49849;-69
2022/05/26 06:15:28;;;;;;;;;1.25;1.25;;;;;-142.59;100.00;56100.38;5032048;28;50676;-73
2022/05/26 06:17:56;;;;;;;;;1.00;0.00;;;;;-142.59;100.00;56100.38;5032364;28;49795;-70
2022/05/26 06:20:21;;;;;;;;;0.75;0.75;;;;;-142.59;100.00;56100.38;5032280;28;50294;-72
2022/05/26 06:22:47;;;;;;;;;0.50;0.50;;;;;-142.59;100.00;56100.38;5031971;28;49859;-70
2022/05/26 06:25:16;;;;;;;;;1.00;1.00;;;;;-142.59;100.00;56100.38;5032097;28;50624;-73
2022/05/26 06:30:26;;;;;;;;;0.00;0.00;;;;;-142.59;100.00;56100.38;5032273;28;49650;-70
2022/05/26 06:38:25;;;;;;;;;2.50;1.00;;;;;-142.59;100.00;56100.38;5023627;28;49808;-63
2022/05/26 06:40:51;;;;;;;;;0.75;0.00;;;;;-142.59;100.00;56100.38;5035198;28;49884;-64
2022/05/26 06:43:18;;;;;;;;;0.25;0.25;;;;;-142.59;100.00;56100.38;5023621;28;49768;-65
2022/05/26 06:45:46;;;;;;;;;2.00;0.50;;;;;-142.59;100.00;56100.38;5026356;28;49732;-73
2022/05/26 06:48:12;;;;;;;;;0.00;0.00;;;;;-142.59;100.00;56100.38;5011943;28;49842;-70
2022/05/26 06:50:39;;;;;;;;;2.25;1.50;;;;;-142.59;100.00;56100.38;5021179;28;49822;-74
2022/05/26 06:53:05;;;;;;;;;1.50;1.00;;;;;-142.59;100.00;56100.38;5016036;28;49891;-66
2022/05/26 06:55:30;;;;;;;;;0.75;0.75;;;;;-142.59;100.00;56100.38;5016093;28;49704;-69
2022/05/26 06:57:56;;;;;;;;;1.00;0.00;;;;;-142.59;100.00;56100.38;5022471;28;49780;-66
2022/05/26 07:00:21;;;;;;;;;1.00;1.00;;;;;-142.59;100.00;56100.38;5016336;28;49859;-73
2022/05/26 07:02:47;;;;;;;;;0.25;0.00;;;;;-142.59;100.00;56100.38;5023164;28;49690;-66
2022/05/26 07:05:13;;;;;;;;;0.00;0.00;;;;;-142.59;100.00;56100.38;5015771;28;51276;-65
2022/05/26 07:07:40;;;;;;;;;2.00;0.75;;;;;-142.59;100.00;56100.38;5015863;28;49576;-70
2022/05/26 07:10:07;;;;;;;;;0.00;0.00;;;;;-142.59;100.00;56100.38;5015926;28;49691;-69
2022/05/26 07:12:33;;;;;;;;;0.50;0.00;;;;;-142.59;100.00;56100.38;5021946;28;50050;-63
2022/05/26 07:14:59;;;;;;;;;0.75;0.75;;;;;-142.59;100.00;56100.38;5015751;28;49747;-69
2022/05/26 07:17:25;;;;;;;;;1.00;1.00;;;;;-142.59;100.00;56100.38;5020112;28;49867;-66
2022/05/26 07:19:50;;;;;;;;;0.00;0.00;;;;;-142.59;100.00;56100.38;5015508;28;49592;-66
2022/05/26 07:22:16;;;;;;;;;0.00;0.00;;;;;-142.59;100.00;56100.38;5021912;28;49895;-71
2022/05/26 07:24:41;;;;;;;;;1.00;1.00;;;;;-142.59;100.00;56100.38;5021186;28;50899;-68
2022/05/26 07:27:08;;;;;;;;;1.00;0.00;;;;;-142.59;100.00;56100.38;5022134;28;49631;-80
2022/05/26 07:29:35;;;;;;;;;1.75;0.25;;;;;-142.59;100.00;56100.38;5006015;28;49660;-75
2022/05/26 07:32:01;;;;;;;;;0.00;0.00;;;;;-142.59;100.00;56100.38;5021830;28;49698;-77
2022/05/26 07:34:27;;;;;;;;;1.00;1.00;;;;;-142.59;100.00;56100.38;5016495;28;49843;-76
2022/05/26 07:42:25;;;;;;;;;2.75;2.75;;;;;-142.59;100.00;56100.38;5028072;28;49995;-73
2022/05/26 07:44:54;;;;;;;;;4.75;4.75;;;;;-142.59;100.00;56100.38;5015034;28;50579;-83
2022/05/26 07:47:20;;;;;;;;;4.75;4.00;;;;;-142.59;100.00;56100.38;5017829;28;49753;-73
2022/05/26 07:49:47;;;;;;;;;4.75;3.75;;;;;-142.59;100.00;56100.38;5027662;28;49921;-72
2022/05/26 07:52:14;;;;;;;;;3.50;3.50;;;;;-142.59;100.00;56100.38;5023574;28;49727;-73
2022/05/26 07:54:41;;;;;;;;;3.00;3.00;;;;;-142.59;100.00;56100.38;5030809;28;51496;-77
2022/05/26 07:57:20;;;;;;;;;6.00;4.00;;;;;-142.59;100.00;56100.38;5023829;28;49806;-71
2022/05/26 07:59:45;;;;;;;;;3.00;3.00;;;;;-142.59;100.00;56100.38;5022255;28;49703;-71
2022/05/26 08:02:10;;;;;;;;;2.00;2.00;;;;;-142.59;100.00;56100.38;5035622;28;49914;-70
2022/05/26 08:04:36;;;;;;;;;3.00;3.00;;;;;-142.59;100.00;56100.38;5014918;28;50348;-69
2022/05/26 08:07:02;;;;;;;;;5.25;5.00;;;;;-142.59;100.00;56100.38;5016924;28;49619;-68
2022/05/26 08:09:27;;;;;;;;;4.00;3.00;;;;;-142.59;100.00;56100.38;5015098;28;49995;-68
2022/05/26 08:11:53;;;;;;;;;3.00;3.00;;;;;-142.59;100.00;56100.38;5015010;28;49635;-70
2022/05/26 08:14:18;;;;;;;;;2.50;2.00;;;;;-142.59;100.00;56100.38;5018891;28;50384;-69
2022/05/26 08:16:43;;;;;;;;;5.25;3.50;;;;;-142.59;100.00;56100.38;5014889;28;49761;-73
2022/05/26 08:19:09;;;;;;;;;4.00;3.00;;;;;-142.59;100.00;56100.38;5022660;28;49772;-76
2022/05/26 08:21:35;;;;;;;;;4.75;3.75;;;;;-142.59;100.00;56100.38;5021532;28;49825;-73
2022/05/26 08:24:02;;;;;;;;;2.25;2.25;;;;;-142.59;100.00;56100.38;5014311;28;50889;-73
2022/05/26 08:26:28;;;;;;;;;4.00;3.00;;;;;-142.59;100.00;56100.38;5020659;28;50259;-76
2022/05/26 08:28:55;;;;;;;;;4.25;4.00;;;;;-142.59;100.00;56100.38;5015917;28;49517;-73
2022/05/26 08:31:21;;;;;;;;;4.25;3.00;;;;;-142.59;100.00;56100.38;5033873;28;50046;-72
2022/05/26 08:33:46;;;;;;;;;4.00;3.00;;;;;-142.59;100.00;56100.38;5033328;28;49658;-69
2022/05/26 08:36:20;;;;;;;;;3.75;3.75;;;;;-142.59;100.00;56100.38;5033805;28;49763;-68
2022/05/26 08:38:46;;;;;;;;;3.50;3.50;;;;;-142.59;100.00;56100.38;5033656;28;49566;-75
2022/05/26 08:41:18;;;;;;;;;4.75;4.25;;;;;-142.59;100.00;56100.38;5021084;28;49661;-74
2022/05/26 08:43:51;;;;;;;;;4.00;4.00;;;;;-142.59;100.00;56100.38;5007288;28;51457;-75
2022/05/26 08:46:18;;;;;;;;;4.25;3.75;;;;;-142.59;100.00;56100.38;5023068;28;50024;-75
2022/05/26 08:48:52;;;;;;;;;6.00;5.00;;;;;-142.59;100.00;56100.38;5016787;28;49742;-72
2022/05/26 08:51:26;;;;;;;;;5.00;5.00;;;;;-142.59;100.00;56100.38;5026915;28;49917;-76
2022/05/26 08:53:55;;;;;;;;;5.50;5.50;;;;;-142.59;100.00;56100.38;5021277;28;49745;-71
2022/05/26 08:56:25;;;;;;;;;3.50;3.50;;;;;-142.59;100.00;56100.38;5031531;28;49958;-75
2022/05/26 08:58:57;;;;;;;;;5.25;5.00;;;;;-142.59;100.00;56100.38;5019453;28;49860;-76
2022/05/26 09:01:27;;;;;;;;;4.50;4.50;;;;;-142.59;100.00;56100.38;5024270;28;49796;-70
2022/05/26 09:03:53;;;;;;;;;5.00;5.00;;;;;-142.59;100.00;56100.38;5016712;28;50367;-77
2022/05/26 09:06:20;;;;;;;;;6.00;6.00;;;;;-142.59;100.00;56100.38;5013666;28;49989;-73
2022/05/26 09:14:21;;;;;;;;;3.50;2.25;;;;;-142.59;100.00;56100.38;5018390;28;50353;-75
2022/05/26 09:16:46;;;;;;;;;4.00;4.00;;;;;-142.59;100.00;56100.38;5013416;28;49776;-74
2022/05/26 09:19:16;;;;;;;;;4.75;4.00;;;;;-142.59;100.00;56100.38;5022346;28;49851;-74
2022/05/26 09:21:44;;;;;;;;;5.00;2.50;;;;;-142.59;100.00;56100.38;5020490;28;49979;-70
2022/05/26 09:24:24;;;;;;;;;4.00;2.75;;;;;-142.59;100.00;56100.38;5016874;28;49862;-79
2022/05/26 09:26:56;;;;;;;;;4.25;2.00;;;;;-142.59;100.00;56100.38;5024817;28;49828;-80
2022/05/26 09:29:30;;;;;;;;;2.00;2.00;;;;;-142.59;100.00;56100.38;5021572;28;49841;-79
2022/05/26 09:31:58;;;;;;;;;3.00;2.00;;;;;-142.59;100.00;56100.38;5015177;28;49702;-74
2022/05/26 09:34:27;;;;;;;;;3.25;1.50;;;;;-142.59;100.00;56100.38;5015880;28;49745;-75
2022/05/26 09:36:59;;;;;;;;;4.00;4.00;;;;;-142.59;100.00;56100.38;5013978;28;49758;-71
2022/05/26 09:39:36;;;;;;;;;4.75;4.00;;;;;-142.59;100.00;56100.38;5017316;28;50086;-83
2022/05/26 09:42:08;;;;;;;;;4.50;4.50;;;;;-142.59;100.00;56100.38;5012466;28;49984;-68
2022/05/26 09:44:47;;;;;;;;;4.00;3.75;;;;;-142.59;100.00;56100.38;5012966;28;49859;-70
2022/05/26 09:47:25;;;;;;;;;4.25;3.00;;;;;-142.59;100.00;56100.38;5025367;28;49896;-68
2022/05/26 09:49:53;;;;;;;;;2.00;2.00;;;;;-142.59;100.00;56100.38;5023687;28;49876;-75
2022/05/26 09:52:23;;;;;;;;;2.75;2.25;;;;;-142.59;100.00;56100.38;5013390;28;50218;-68
2022/05/26 09:55:07;;;;;;;;;5.25;2.50;;;;;-142.59;100.00;56100.38;5013321;28;51088;-69
2022/05/26 09:57:33;;;;;;;;;1.75;1.00;;;;;-142.59;100.00;56100.38;5013072;28;49871;-69
2022/05/26 09:59:59;;;;;;;;;3.00;3.00;;;;;-142.59;100.00;56100.38;5009668;28;50280;-68
2022/05/26 10:02:35;;;;;;;;;3.00;3.00;;;;;-142.59;100.00;56100.38;5014949;28;50119;-70
2022/05/26 10:05:29;;;;;;;;;2.00;2.00;;;;;-142.59;100.00;56100.38;5025191;28;50619;-70
2022/05/26 10:08:16;;;;;;;;;2.00;2.00;;;;;-142.59;100.00;56100.38;5025926;28;50088;-67
2022/05/26 10:11:04;;;;;;;;;3.00;3.00;;;;;-142.59;100.00;56100.38;5021686;28;49793;-68
2022/05/26 10:14:08;;;;;;;;;2.25;2.25;;;;;-142.59;100.00;56100.38;5001524;28;49913;-69
2022/05/26 10:16:48;;;;;;;;;3.50;2.50;;;;;-142.59;100.00;56100.38;4957273;28;50513;-67
2022/05/26 10:19:52;;;;;;;;;1.25;1.25;;;;;-142.59;100.00;56100.38;4964685;28;49813;-68
2022/05/26 10:22:28;;;;;;;;;3.00;3.00;;;;;-142.59;100.00;56100.38;4941573;28;49918;-67
2022/05/26 10:25:18;;;;;;;;;2.25;2.25;;;;;-142.59;100.00;56100.38;4968419;28;49890;-67
2022/05/26 10:28:21;;;;;;;;;2.75;2.75;;;;;-142.59;100.00;56100.38;5015341;28;49784;-67
2022/05/26 10:31:03;;;;;;;;;1.00;1.00;;;;;-142.59;100.00;56100.38;5035255;28;49887;-73
2022/05/26 10:33:44;;;;;;;;;2.00;2.00;;;;;-142.59;100.00;56100.38;5024495;28;49775;-65
2022/05/26 10:36:43;;;;;;;;;2.50;1.75;;;;;-142.59;100.00;56100.38;5024563;28;49596;-71
2022/05/26 10:39:23;;;;;;;;;1.00;1.00;;;;;-142.59;100.00;56100.38;5022432;28;50431;-73
2022/05/26 10:41:58;;;;;;;;;2.00;2.00;;;;;-142.59;100.00;56100.38;5010208;28;49797;-73
2022/05/26 10:44:31;;;;;;;;;0.50;0.50;;;;;-142.59;100.00;56100.38;5028608;28;49868;-72
2022/05/26 10:47:11;;;;;;;;;3.00;2.00;;;;;-142.59;100.00;56100.38;5006563;28;49781;-72
2022/05/26 10:50:06;;;;;;;;;4.25;0.75;;;;;-142.59;100.00;56100.38;5019750;28;50596;-70
2022/05/26 10:52:43;;;;;;;;;0.00;0.00;;;;;-142.59;100.00;56100.38;5018099;28;49835;-74
2022/05/26 10:55:20;;;;;;;;;1.00;1.00;;;;;-142.59;100.00;56100.38;5019613;28;49781;-73
2022/05/26 10:57:57;;;;;;;;;2.00;2.00;;;;;-142.59;100.00;56100.38;5017849;28;49613;-70
2022/05/26 11:00:29;;;;;;;;;1.75;1.75;;;;;-142.59;100.00;56100.38;5027613;28;51185;-71
2022/05/26 11:03:07;;;;;;;;;0.75;0.75;;;;;-142.59;100.00;56100.38;5017986;28;49821;-70
2022/05/26 11:05:48;;;;;;;;;1.75;1.75;;;;;-142.59;100.00;56100.38;5026155;28;49852;-71
2022/05/26 11:08:34;;;;;;;;;1.00;1.00;;;;;-142.59;100.00;56100.38;5023763;28;49853;-72
2022/05/26 11:11:11;;;;;;;;;3.00;2.00;;;;;-142.59;100.00;56100.38;5026595;28;50772;-70
2022/05/26 11:13:41;;;;;;;;;1.00;1.00;;;;;-142.59;100.00;56100.38;5010967;28;49901;-71
2022/05/26 11:19:27;;;;;;;;;3.75;3.75;;;;;-142.59;100.00;56100.38;5022092;28;49961;-70
2022/05/26 11:21:56;;;;;;;;;1.75;1.00;;;;;-142.59;100.00;56100.38;5020950;28;49764;-69
2022/05/26 11:24:23;;;;;;;;;2.25;2.25;;;;;-142.59;100.00;56100.38;5034375;28;49596;-70
2022/05/26 11:27:04;;;;;;;;;2.25;2.00;;;;;-142.59;100.00;56100.38;5021731;28;49898;-72
2022/05/26 11:29:51;;;;;;;;;0.50;0.50;;;;;-142.59;100.00;56100.38;5015915;28;49607;-72
2022/05/26 11:38:21;;;;;;;;;0.00;0.00;;;;;-142.59;100.00;56100.38;5034429;28;49664;-73
2022/05/26 11:41:06;;;;;;;;;3.00;2.00;;;;;-142.59;100.00;56100.38;5010885;28;50008;-72
2022/05/26 11:44:06;;;;;;;;;1.00;1.00;;;;;-142.59;100.00;56100.38;5028284;28;51240;-73
2022/05/26 11:46:56;;;;;;;;;0.00;0.00;;;;;-142.59;100.00;56100.38;5019054;28;49919;-74
2022/05/26 11:49:43;;;;;;;;;0.75;0.75;;;;;-142.59;100.00;56100.38;5026947;28;49817;-71
2022/05/26 11:52:47;;;;;;;;;0.00;0.00;;;;;-142.59;100.00;56100.38;5028985;28;49881;-70
2022/05/26 11:55:46;;;;;;;;;0.75;0.75;;;;;-142.59;100.00;56100.38;5015727;28;49923;-70
2022/05/26 11:58:32;;;;;;;;;2.00;1.00;;;;;-142.59;100.00;56100.38;5018209;28;49810;-70
2022/05/26 12:01:22;;;;;;;;;0.00;0.00;;;;;-142.59;100.00;56100.38;5024019;28;49951;-69
2022/05/26 12:03:53;;;;;;;;;0.50;0.50;;;;;-142.59;100.00;56100.38;5030043;28;50071;-71